Hauptseite
METAR-TAF:

METAR-TAF

Flughäfen :

Stornoway Airport

Stornoway, Schottland

Breite: 58-13N, Länge: 006-19W, Höhe: 9 m

Beobachtung

Neuester Wetterbericht von vor 38 Minuten, um 02:50 UTC
Wind 2 kt aus Nord/Nordwest
Temperatur 8°C
Luftfeuchtigkeit 93%
Luftdruck 1027 hPa
Sichtweite 10 km oder mehr

METAR: EGPO 250250Z AUTO 33002KT 9999 NCD 08/07 Q1027

Zeit: 04:28 (03:28 UTC)

Prognose

Neuester Wetterbericht von vor 16 Stunden und 25 Minuten, um 11:03 UTC
Gültige Prognose vom 24 um 12 UTC bis 24 um 21 UTC
Wind 8 kt aus Süd
Sichtweite 10 km oder mehr
keine Wolken unter 1500 m und keine Kumulonimbus oder Gewitterwolken
Zeitweise
vom 24 um 18 UTC bis 24 um 21 UTC
Sichtweite: 6000 m
Durchbrochene Bewölkung in der Höhe von 1200 ft

TAF: EGPO 241103Z 2412/2421 19008KT CAVOK TEMPO 2418/2421 6000 BKN012

Wetterbeobachtungen und Prognosen von mehr als 4000 Flughäfen (METAR und TAF Bericht).

Die verfügbaren Stationen werden durch gelbe und rote Markierungen auf der Karte dargestellt.

Führen Sie die Maus auf sie, um den Namen der Station zu sehen.

Darauf klicken, um die Beobachtung von Wetterbeobachtungen und Prognosen zu sehen.

Um die Karte zu ändern : klicken Sie auf den grünen Tasten mit einem schwarzen Kreuz Zum Vergrößern, auf den grünen Button mit einem Gedankenstrich zu verkleinern, oder auf die grünen Pfeile für benachbarte Karten.


METAR-TAF: